cubair logo
hxf history

Hartford Municipal Airport has a long history of Grassroots Aviation. Over the years it has been home to many aerobatic shows, barnstorming rides and almost consistently thorough the years there has been flight instruction offered on the field. At one time one of the largest Cessna dealerships was located right on the field. Currently the majority of aircraft located on the field are antique and most of them are tailwheel aircraft.

The Hartford Airport is named Miles Field after a fellow named Jim Miles who was a crop duster and an instructor for many years. There are several gentleman on the field today that earned their pilots license from Mr. Miles. Hartford Airport does not have fences around it and on any given weekend weather permitting there is an opportunity to watch Cubs fly along with Gliders from the local Glider Club. Generally, there are several hangar doors open and projects are being worked on and folks getting ready to go for a quick flight around the patch.

hxf history 2

Find Us Here!

Hartford Municipal

Airport (KHXF)
4200 Highway U
Hartford, WI 53027

Our Staff

Steve Krog
Jamie Weber

West Bend Weather

[Source: ADDS]
METAR
KETB 232015Z AUTO 12010KT 10SM CLR 24/13 A3016 RMK AO2 =
TAF

Waukesha Weather

[Source: ADDS]
METAR
KUES 231945Z 18005KT 10SM SKC 24/09 A3018 =
TAF
KUES 231935Z 2320/2418 18005KT P6SM FEW250 FM232300 16006KT P6SM FEW250 FM240200 VRB04KT P6SM FEW250 FM241300 18005KT P6SM FEW250 =

Juneau Weather

[Source: ADDS]
METAR
KUNU 232015Z AUTO 19007KT 170V230 10SM BKN044 25/16 A3017 RMK AO2 T02490157 =
TAF

Fond Du Lac Weather

[Source: ADDS]
METAR
KFLD 231953Z AUTO 23006KT 10SM CLR 24/13 A3016 RMK AO2 SLP212 T02440133 =
TAF